CheckWX is a tool to help pilots better visualize weather data.  It is not intended as a substitute for an official pre-flight weather briefing.

21:43:08 UTC

EGPC TAF
Wick Airport
Wick, United Kingdom
TAF EGPC 221955Z 2221/2306 20012KT 9999 FEW015 SCT035 TEMPO 2300/2306 21015G25KT BKN012 PROB30 TEMPO 2303/2306 BKN008

Oct-22@
21:00 UTC

Oct-22 @ 21:00 UTC

Oct-23@
06:00 UTC

Oct-23 @ 06:00 UTC

TAF EGPC 221955Z 2221/2306 20012KT 9999 FEW015 SCT035
Wind
  • 200° at 12 KTS
Cloud Levels
  • Few at 1,500' AGL
  • Scattered at 3,500' AGL

Oct-23@
00:00 UTC

Oct-23 @ 00:00 UTC

Oct-23@
06:00 UTC

Oct-23 @ 06:00 UTC

TEMPO 2300/2306 21015G25KT BKN012

Temporary

Temporary Changes expected for less than half the time period

Wind
  • 210° at 15 KTS
  • {Gusting to 25 KTS
Cloud Levels
  • Broken at 1,200' AGL

Oct-23@
03:00 UTC

Oct-23 @ 03:00 UTC

Oct-23@
06:00 UTC

Oct-23 @ 06:00 UTC

PROB30 TEMPO 2303/2306 BKN008

Temporary - 30% Likelihood

Temporary - 30% Likelihood during this time.

Cloud Levels
  • Broken at 800' AGL